createdAt,value
2023-02-18T00:00:00.000Z,6.61
2023-02-18T00:05:00.000Z,6.43
2023-02-18T00:10:00.000Z,6.39
2023-02-18T00:15:02.000Z,6.26
2023-02-18T00:20:00.000Z,6.19
2023-02-18T00:25:00.000Z,6.08
2023-02-18T00:30:01.000Z,5.98
2023-02-18T00:35:00.000Z,5.90
2023-02-18T00:40:00.000Z,5.76
2023-02-18T00:45:01.000Z,5.68
2023-02-18T01:10:01.000Z,5.50
2023-02-18T01:15:00.000Z,5.36
2023-02-18T01:20:00.000Z,5.33
2023-02-18T01:25:00.000Z,5.26
2023-02-18T01:30:00.000Z,5.22
2023-02-18T01:35:01.000Z,5.19
2023-02-18T01:40:01.000Z,5.13
2023-02-18T01:45:01.000Z,5.18
2023-02-18T01:50:01.000Z,5.10
2023-02-18T01:55:00.000Z,5.05
2023-02-18T02:00:00.000Z,5.00
2023-02-18T02:05:01.000Z,4.94
2023-02-18T02:10:01.000Z,4.89
2023-02-18T02:15:01.000Z,4.91
2023-02-18T02:20:16.000Z,4.84
2023-02-18T02:25:02.000Z,4.82
2023-02-18T02:30:16.000Z,4.81
2023-02-18T02:35:17.000Z,4.81
2023-02-18T02:40:16.000Z,4.80
2023-02-18T02:45:01.000Z,4.80
2023-02-18T02:49:46.000Z,4.71
2023-02-18T02:55:01.000Z,4.58
2023-02-18T03:00:06.000Z,4.48
2023-02-18T03:05:03.000Z,4.42
2023-02-18T03:10:01.000Z,4.37
2023-02-18T03:15:01.000Z,4.29
2023-02-18T03:20:16.000Z,4.27
2023-02-18T03:25:00.000Z,4.27
2023-02-18T03:30:01.000Z,4.23
2023-02-18T03:35:01.000Z,4.22
2023-02-18T03:40:01.000Z,4.14
2023-02-18T03:45:01.000Z,4.16
2023-02-18T03:50:00.000Z,4.14
2023-02-18T03:55:02.000Z,4.13
2023-02-18T04:00:01.000Z,4.12
2023-02-18T04:05:01.000Z,4.14
2023-02-18T04:10:01.000Z,4.14
2023-02-18T04:15:01.000Z,4.13
2023-02-18T04:20:01.000Z,4.09
2023-02-18T04:25:01.000Z,3.98
2023-02-18T04:30:01.000Z,3.91
2023-02-18T04:35:01.000Z,3.91
2023-02-18T04:40:01.000Z,3.82
2023-02-18T04:45:01.000Z,3.84
2023-02-18T04:50:02.000Z,3.76
2023-02-18T04:55:00.000Z,3.71
2023-02-18T05:00:03.000Z,3.61
2023-02-18T05:05:01.000Z,3.58
2023-02-18T05:10:01.000Z,3.72
2023-02-18T05:15:01.000Z,3.63
2023-02-18T05:20:01.000Z,3.61
2023-02-18T05:25:01.000Z,3.56
2023-02-18T05:30:01.000Z,3.56
2023-02-18T05:35:01.000Z,3.55
2023-02-18T05:40:01.000Z,3.56
2023-02-18T05:45:05.000Z,3.56
2023-02-18T05:50:02.000Z,3.58
2023-02-18T05:55:01.000Z,3.80
2023-02-18T06:00:01.000Z,3.88
2023-02-18T06:05:01.000Z,3.97
2023-02-18T06:10:01.000Z,4.03
2023-02-18T06:15:01.000Z,4.07
2023-02-18T06:20:01.000Z,4.04
2023-02-18T06:25:01.000Z,4.07
2023-02-18T06:30:02.000Z,4.09
2023-02-18T06:35:01.000Z,4.16
2023-02-18T06:40:01.000Z,4.26
2023-02-18T06:45:01.000Z,4.37
2023-02-18T06:50:01.000Z,4.36
2023-02-18T06:55:01.000Z,4.47
2023-02-18T07:00:01.000Z,4.62
2023-02-18T07:05:01.000Z,4.66
2023-02-18T07:10:01.000Z,4.63
2023-02-18T07:15:01.000Z,4.67
2023-02-18T07:20:01.000Z,4.77
2023-02-18T07:25:01.000Z,4.88
2023-02-18T07:30:01.000Z,4.97
2023-02-18T07:35:01.000Z,5.02
2023-02-18T07:40:01.000Z,5.16
2023-02-18T07:45:01.000Z,5.34
2023-02-18T07:50:01.000Z,5.64
2023-02-18T07:55:01.000Z,6.21
2023-02-18T08:00:01.000Z,6.55
2023-02-18T08:05:01.000Z,6.57
2023-02-18T08:10:02.000Z,6.63
2023-02-18T08:15:01.000Z,6.89
2023-02-18T08:20:01.000Z,7.14
2023-02-18T08:25:01.000Z,7.34
2023-02-18T08:30:01.000Z,7.56
2023-02-18T08:35:01.000Z,7.69
2023-02-18T08:40:01.000Z,7.84
2023-02-18T08:45:01.000Z,8.01
2023-02-18T08:50:01.000Z,8.39
2023-02-18T08:55:01.000Z,9.06
2023-02-18T09:00:01.000Z,9.36
2023-02-18T09:05:01.000Z,9.71
2023-02-18T09:10:01.000Z,10.12
2023-02-18T09:15:01.000Z,10.46
2023-02-18T09:20:01.000Z,10.59
2023-02-18T09:25:01.000Z,10.63
2023-02-18T09:30:01.000Z,10.60
2023-02-18T09:35:01.000Z,10.73
2023-02-18T09:40:01.000Z,11.08
2023-02-18T09:45:01.000Z,11.46
2023-02-18T09:50:01.000Z,11.92
2023-02-18T09:55:01.000Z,12.21
2023-02-18T10:00:01.000Z,12.45
2023-02-18T10:05:01.000Z,12.62
2023-02-18T10:10:01.000Z,12.82
2023-02-18T10:15:01.000Z,12.99
2023-02-18T10:20:01.000Z,13.22
2023-02-18T10:25:01.000Z,13.20
2023-02-18T10:30:01.000Z,13.50
2023-02-18T10:35:02.000Z,13.44
2023-02-18T10:40:01.000Z,13.59
2023-02-18T10:45:01.000Z,13.75
2023-02-18T10:50:01.000Z,13.77
2023-02-18T10:55:01.000Z,13.76
2023-02-18T11:00:01.000Z,13.67
2023-02-18T11:05:01.000Z,13.81
2023-02-18T11:10:01.000Z,13.83
2023-02-18T11:15:01.000Z,14.00
2023-02-18T11:20:01.000Z,13.90
2023-02-18T11:25:01.000Z,14.03
2023-02-18T11:30:01.000Z,14.28
2023-02-18T11:35:01.000Z,14.25
2023-02-18T11:40:01.000Z,14.23
2023-02-18T11:45:01.000Z,14.22
2023-02-18T11:50:01.000Z,14.25
2023-02-18T11:55:01.000Z,14.32
2023-02-18T12:00:01.000Z,14.39
2023-02-18T12:05:01.000Z,14.38
2023-02-18T12:10:01.000Z,14.50
2023-02-18T12:15:01.000Z,14.56
2023-02-18T12:20:01.000Z,14.49
2023-02-18T12:25:01.000Z,14.52
2023-02-18T12:30:01.000Z,14.71
2023-02-18T12:35:01.000Z,14.77
2023-02-18T12:40:01.000Z,14.84
2023-02-18T12:45:01.000Z,14.87
2023-02-18T12:50:01.000Z,14.87
2023-02-18T12:55:01.000Z,14.89
2023-02-18T13:00:01.000Z,14.99
2023-02-18T13:05:01.000Z,15.03
2023-02-18T13:10:01.000Z,15.04
2023-02-18T13:15:01.000Z,15.12
2023-02-18T13:20:01.000Z,15.18
2023-02-18T13:25:01.000Z,15.25
2023-02-18T13:30:01.000Z,15.31
2023-02-18T13:35:01.000Z,15.30
2023-02-18T13:40:01.000Z,15.29
2023-02-18T13:45:01.000Z,15.30
2023-02-18T13:50:01.000Z,15.34
2023-02-18T13:55:01.000Z,15.26
2023-02-18T14:00:01.000Z,15.24
2023-02-18T14:05:01.000Z,15.26
2023-02-18T14:10:01.000Z,15.25
2023-02-18T14:15:01.000Z,15.24
2023-02-18T14:20:01.000Z,15.17
2023-02-18T14:25:01.000Z,15.16
2023-02-18T14:30:01.000Z,15.10
2023-02-18T14:35:01.000Z,15.04
2023-02-18T14:40:01.000Z,15.03
2023-02-18T14:45:01.000Z,15.07
2023-02-18T14:50:01.000Z,15.01
2023-02-18T14:55:01.000Z,14.98
2023-02-18T15:00:01.000Z,14.89
2023-02-18T15:05:01.000Z,14.87
2023-02-18T15:10:01.000Z,14.72
2023-02-18T15:15:01.000Z,14.64
2023-02-18T15:20:01.000Z,14.57
2023-02-18T15:25:01.000Z,14.44
2023-02-18T15:30:01.000Z,14.32
2023-02-18T15:35:01.000Z,14.27
2023-02-18T15:40:01.000Z,14.17
2023-02-18T15:45:01.000Z,14.14
2023-02-18T15:50:01.000Z,14.07
2023-02-18T15:55:01.000Z,14.01
2023-02-18T16:00:01.000Z,13.89
2023-02-18T16:05:01.000Z,13.81
2023-02-18T16:10:01.000Z,13.63
2023-02-18T16:15:01.000Z,13.46
2023-02-18T16:20:01.000Z,13.35
2023-02-18T16:25:01.000Z,13.26
2023-02-18T16:30:01.000Z,13.04
2023-02-18T16:35:01.000Z,12.93
2023-02-18T16:40:02.000Z,12.78
2023-02-18T16:45:01.000Z,12.52
2023-02-18T16:50:01.000Z,12.21
2023-02-18T16:55:02.000Z,12.04
2023-02-18T17:00:02.000Z,11.93
2023-02-18T17:05:01.000Z,11.57
2023-02-18T17:10:02.000Z,11.26
2023-02-18T17:15:02.000Z,11.08
2023-02-18T17:20:01.000Z,10.73
2023-02-18T17:25:01.000Z,10.82
2023-02-18T17:30:01.000Z,10.79
2023-02-18T17:35:01.000Z,10.49
2023-02-18T17:40:02.000Z,10.23
2023-02-18T17:45:01.000Z,9.74
2023-02-18T17:50:01.000Z,9.53
2023-02-18T17:55:01.000Z,9.41
2023-02-18T18:00:01.000Z,9.21
2023-02-18T18:05:01.000Z,8.92
2023-02-18T18:10:01.000Z,8.78
2023-02-18T18:15:01.000Z,8.68
2023-02-18T18:20:01.000Z,8.64
2023-02-18T18:25:01.000Z,8.59
2023-02-18T18:30:02.000Z,8.46
2023-02-18T18:35:01.000Z,8.28
2023-02-18T18:40:01.000Z,8.07
2023-02-18T18:45:01.000Z,7.98
2023-02-18T18:50:01.000Z,7.92
2023-02-18T18:55:01.000Z,7.81
2023-02-18T19:00:03.000Z,7.71
2023-02-18T19:05:01.000Z,7.56
2023-02-18T19:10:01.000Z,7.61
2023-02-18T19:15:01.000Z,7.61
2023-02-18T19:20:01.000Z,7.57
2023-02-18T19:25:01.000Z,7.53
2023-02-18T19:30:01.000Z,7.49
2023-02-18T19:35:01.000Z,7.44
2023-02-18T19:40:01.000Z,7.34
2023-02-18T19:45:01.000Z,7.13
2023-02-18T19:50:01.000Z,6.99
2023-02-18T19:55:01.000Z,6.86
2023-02-18T20:00:01.000Z,6.70
2023-02-18T20:05:01.000Z,6.67
2023-02-18T20:10:01.000Z,6.58
2023-02-18T20:15:02.000Z,6.44
2023-02-18T20:20:01.000Z,6.33
2023-02-18T20:25:01.000Z,6.26
2023-02-18T20:30:01.000Z,6.23
2023-02-18T20:35:01.000Z,6.17
2023-02-18T20:40:01.000Z,6.13
2023-02-18T20:45:01.000Z,6.02
2023-02-18T20:50:01.000Z,5.92
2023-02-18T20:55:01.000Z,5.83
2023-02-18T21:00:02.000Z,5.79
2023-02-18T21:05:01.000Z,5.71
2023-02-18T21:10:01.000Z,5.65
2023-02-18T21:15:01.000Z,5.56
2023-02-18T21:20:01.000Z,5.49
2023-02-18T21:25:02.000Z,5.46
2023-02-18T21:30:01.000Z,5.45
2023-02-18T21:35:01.000Z,5.42
2023-02-18T21:40:01.000Z,5.33
2023-02-18T21:45:02.000Z,5.31
2023-02-18T21:50:01.000Z,5.24
2023-02-18T21:55:01.000Z,5.09
2023-02-18T22:00:02.000Z,5.03
2023-02-18T22:05:01.000Z,4.97
2023-02-18T22:10:02.000Z,4.97
2023-02-18T22:15:01.000Z,4.97
2023-02-18T22:20:02.000Z,4.87
2023-02-18T22:25:01.000Z,4.76
2023-02-18T22:30:02.000Z,4.74
2023-02-18T22:35:01.000Z,4.66
2023-02-18T22:40:02.000Z,4.65
2023-02-18T22:45:01.000Z,4.58
2023-02-18T22:50:01.000Z,4.51
2023-02-18T22:55:02.000Z,4.46
2023-02-18T23:00:03.000Z,4.38
2023-02-18T23:05:02.000Z,4.33
2023-02-18T23:10:02.000Z,4.22
2023-02-18T23:15:02.000Z,4.14
2023-02-18T23:20:02.000Z,4.09
2023-02-18T23:25:02.000Z,4.04
2023-02-18T23:30:02.000Z,3.98
2023-02-18T23:35:02.000Z,3.94
2023-02-18T23:40:01.000Z,3.99
2023-02-18T23:45:02.000Z,4.19
2023-02-18T23:50:02.000Z,4.07
2023-02-18T23:55:02.000Z,3.95
